Time;durP1;ratioP1;P1;durP2;ratioP2;P2;SDS_P1;SDS_P2;PMS_P1;PMS_P2;Temp;Humidity;BMP_temperature;BMP_pressure;BME280_temperature;BME280_humidity;BME280_pressure;Samples;Min_cycle;Max_cycle;Signal;HPM_P1;HPM_P2
2022/06/04 00:00:51;;;;;;;1.10;0.40;;;19.40;57.00;;;;;;5114932;28;20039;-72
2022/06/04 00:03:18;;;;;;;1.23;0.63;;;19.30;57.00;;;;;;5113935;28;20039;-72
2022/06/04 00:05:47;;;;;;;1.13;0.40;;;19.40;57.10;;;;;;5113712;28;20078;-72
2022/06/04 00:08:13;;;;;;;1.10;0.30;;;19.30;57.00;;;;;;5113836;28;20047;-72
2022/06/04 00:16:15;;;;;;;1.25;0.50;;;19.30;57.10;;;;;;5113527;28;20058;-72
2022/06/04 00:18:41;;;;;;;1.52;0.40;;;19.30;57.20;;;;;;5114765;28;20048;-72
2022/06/04 00:21:09;;;;;;;2.30;0.50;;;19.30;57.20;;;;;;5113816;28;20043;-72
2022/06/04 00:23:35;;;;;;;1.45;0.47;;;19.30;57.20;;;;;;5114762;28;20043;-72
2022/06/04 00:26:03;;;;;;;0.95;0.40;;;19.30;57.20;;;;;;5113989;28;20040;-72
2022/06/04 00:28:29;;;;;;;0.70;0.40;;;19.20;57.20;;;;;;5113771;28;20100;-72
2022/06/04 00:30:56;;;;;;;0.95;0.50;;;19.20;57.20;;;;;;5113216;28;20487;-72
2022/06/04 00:33:25;;;;;;;1.40;0.60;;;19.20;57.30;;;;;;5112994;28;20051;-72
2022/06/04 00:35:55;;;;;;;1.40;0.75;;;19.20;57.30;;;;;;5114356;28;20036;-72
2022/06/04 00:38:23;;;;;;;1.05;0.50;;;19.20;57.40;;;;;;5113266;28;20039;-72
2022/06/04 00:43:32;;;;;;;1.40;0.45;;;19.20;57.40;;;;;;5047848;27;4094604;-72
2022/06/04 00:49:00;;;;;;;1.90;0.65;;;19.10;57.50;;;;;;5130208;27;20395;-72
2022/06/04 00:51:26;;;;;;;0.93;0.70;;;19.10;57.40;;;;;;5111823;28;20043;-71
2022/06/04 00:53:55;;;;;;;0.88;0.45;;;19.10;57.40;;;;;;5128915;28;20035;-66
2022/06/04 01:16:33;;;;;;;0.95;0.52;;;19.00;57.70;;;;;;5151113;27;1212879;-71
2022/06/04 01:19:33;;;;;;;1.25;0.47;;;19.00;57.70;;;;;;5153011;27;20489;-72
2022/06/04 01:30:49;;;;;;;2.38;0.63;;;19.00;57.70;;;;;;5130210;27;20383;-72
2022/06/04 01:33:21;;;;;;;;;;;19.00;57.80;;;;;;5129680;27;20039;-72
2022/06/04 01:38:36;;;;;;;2.33;0.73;;;19.00;57.90;;;;;;5130270;27;20432;-71
2022/06/04 01:41:30;;;;;;;1.58;0.50;;;19.00;57.80;;;;;;5129262;27;20497;-71
2022/06/04 01:44:02;;;;;;;1.25;0.80;;;18.90;57.80;;;;;;5146009;27;20048;-71
2022/06/04 01:46:34;;;;;;;1.42;0.70;;;18.90;57.80;;;;;;5129055;28;20062;-72
2022/06/04 01:49:10;;;;;;;1.92;0.95;;;18.90;57.80;;;;;;5129294;28;20027;-72
2022/06/04 01:51:36;;;;;;;2.78;0.80;;;18.90;57.80;;;;;;5130068;27;20039;-72
2022/06/04 01:54:10;;;;;;;2.38;0.50;;;18.90;57.80;;;;;;5129313;28;20470;-72
2022/06/04 01:56:40;;;;;;;1.92;0.93;;;18.90;57.80;;;;;;5128579;28;20050;-72
2022/06/04 01:59:31;;;;;;;1.67;0.80;;;18.90;57.80;;;;;;5130145;27;20074;-72
2022/06/04 02:01:59;;;;;;;1.60;0.70;;;18.90;57.90;;;;;;5128580;28;20043;-73
2022/06/04 02:04:30;;;;;;;1.15;0.77;;;18.80;57.80;;;;;;5128797;28;20036;-72
2022/06/04 02:07:33;;;;;;;1.27;0.93;;;18.80;57.90;;;;;;5129636;27;20039;-72
2022/06/04 02:12:40;;;;;;;2.08;0.93;;;18.80;57.90;;;;;;5130292;27;20426;-72
2022/06/04 02:15:09;;;;;;;2.28;0.65;;;18.80;57.90;;;;;;5128711;27;20383;-72
2022/06/04 02:17:38;;;;;;;1.77;0.70;;;18.80;57.90;;;;;;5129197;28;20096;-72
2022/06/04 02:20:04;;;;;;;1.67;0.65;;;18.70;57.80;;;;;;5129257;28;20039;-72
2022/06/04 02:22:31;;;;;;;1.30;0.70;;;18.70;57.80;;;;;;5129122;27;20046;-72
2022/06/04 02:25:01;;;;;;;1.00;0.60;;;18.70;57.90;;;;;;5130215;27;20031;-72
2022/06/04 02:27:29;;;;;;;1.48;0.70;;;18.80;57.90;;;;;;5130075;27;20119;-72
2022/06/04 02:29:55;;;;;;;1.15;0.73;;;18.80;57.90;;;;;;5129893;28;20054;-72
2022/06/04 02:35:34;;;;;;;2.35;0.90;;;18.70;57.90;;;;;;5089356;27;20413;-72
2022/06/04 02:41:14;;;;;;;2.17;0.90;;;18.80;58.00;;;;;;5150891;27;20323;-72
2022/06/04 02:43:50;;;;;;;2.08;0.82;;;18.70;57.90;;;;;;5130205;28;20065;-72
2022/06/04 02:46:41;;;;;;;1.98;0.70;;;18.70;57.90;;;;;;5129163;28;20144;-72
2022/06/04 02:49:35;;;;;;;2.53;1.05;;;18.70;57.90;;;;;;5128990;28;20043;-73
2022/06/04 02:52:03;;;;;;;1.85;0.80;;;18.70;58.00;;;;;;5128916;28;20035;-72
2022/06/04 02:54:38;;;;;;;2.17;1.10;;;18.70;57.90;;;;;;5129027;28;20130;-72
2022/06/04 02:57:05;;;;;;;1.83;0.60;;;18.70;57.90;;;;;;5128898;28;20118;-72
2022/06/04 02:59:34;;;;;;;1.70;0.98;;;18.70;57.90;;;;;;5128703;28;20109;-72
2022/06/04 03:02:02;;;;;;;2.20;0.90;;;18.70;57.90;;;;;;5130078;27;20333;-71
2022/06/04 03:04:38;;;;;;;2.17;0.73;;;18.60;57.90;;;;;;5128800;28;20463;-72
2022/06/04 03:07:05;;;;;;;1.30;0.90;;;18.70;57.90;;;;;;5128529;28;20044;-72
2022/06/04 03:09:31;;;;;;;1.70;0.90;;;18.70;57.90;;;;;;5128498;28;20119;-72
2022/06/04 03:11:57;;;;;;;1.52;1.00;;;18.60;57.90;;;;;;5128389;28;20196;-72
2022/06/04 03:14:24;;;;;;;2.10;0.70;;;18.60;57.90;;;;;;5129658;27;20114;-72
2022/06/04 03:16:49;;;;;;;3.53;1.20;;;18.60;57.90;;;;;;5129664;27;20068;-72
2022/06/04 03:19:15;;;;;;;2.53;1.25;;;18.60;58.70;;;;;;5128186;28;20047;-72
2022/06/04 03:21:42;;;;;;;3.08;1.17;;;18.50;57.90;;;;;;5128246;28;20085;-72
2022/06/04 03:24:09;;;;;;;1.35;0.90;;;18.60;57.90;;;;;;5128482;28;20107;-72
2022/06/04 03:26:36;;;;;;;2.40;0.90;;;18.50;57.90;;;;;;5128105;28;20048;-72
2022/06/04 03:29:02;;;;;;;1.45;0.98;;;18.60;57.90;;;;;;5128052;28;20491;-72
2022/06/04 03:31:29;;;;;;;3.42;1.13;;;18.50;57.90;;;;;;5128405;28;20067;-72
2022/06/04 03:33:55;;;;;;;2.30;1.08;;;18.50;57.90;;;;;;5128256;28;20069;-73
2022/06/04 03:36:21;;;;;;;2.50;1.17;;;18.50;57.90;;;;;;5127991;28;20053;-72
2022/06/04 03:38:48;;;;;;;3.28;0.68;;;18.50;57.90;;;;;;5128886;27;20395;-72
2022/06/04 03:41:14;;;;;;;2.03;1.00;;;18.50;58.00;;;;;;5127851;28;20495;-72
2022/06/04 03:43:46;;;;;;;2.33;1.20;;;18.50;58.00;;;;;;5124617;28;20059;-72
2022/06/04 03:46:12;;;;;;;1.25;0.80;;;18.50;58.00;;;;;;5108852;28;20042;-72
2022/06/04 03:48:38;;;;;;;2.70;1.00;;;18.50;58.00;;;;;;5107495;28;20035;-72
2022/06/04 03:51:04;;;;;;;1.45;1.02;;;18.50;58.00;;;;;;5100204;28;20395;-72
2022/06/04 03:53:29;;;;;;;1.45;0.80;;;18.50;58.00;;;;;;5093503;28;20040;-72
2022/06/04 03:55:55;;;;;;;2.13;0.82;;;18.50;58.00;;;;;;5093466;28;20035;-72
2022/06/04 03:58:21;;;;;;;1.95;1.08;;;18.50;58.00;;;;;;5093412;28;20143;-72
2022/06/04 04:00:47;;;;;;;3.75;1.10;;;18.50;58.00;;;;;;5093255;28;20115;-72
2022/06/04 04:03:15;;;;;;;2.78;1.05;;;18.50;58.00;;;;;;5093503;28;20040;-72
2022/06/04 04:05:47;;;;;;;2.35;0.98;;;18.50;58.00;;;;;;5093507;28;20051;-72
2022/06/04 04:08:13;;;;;;;3.03;1.30;;;18.50;58.10;;;;;;5093282;28;20043;-72
2022/06/04 04:10:41;;;;;;;1.65;0.98;;;18.50;58.00;;;;;;5093352;28;20054;-72
2022/06/04 04:13:08;;;;;;;3.70;1.15;;;18.40;58.00;;;;;;5094503;28;20085;-72
2022/06/04 04:15:33;;;;;;;1.85;1.02;;;18.40;58.70;;;;;;5110115;28;20051;-72
2022/06/04 04:17:59;;;;;;;3.70;1.15;;;18.40;58.00;;;;;;5094364;28;20040;-72
2022/06/04 04:20:29;;;;;;;1.95;1.13;;;18.40;58.00;;;;;;5092967;28;20065;-72
2022/06/04 04:22:55;;;;;;;1.33;0.60;;;18.40;58.00;;;;;;5092999;28;20071;-72
2022/06/04 04:25:25;;;;;;;2.72;1.10;;;18.50;58.00;;;;;;5092844;28;20068;-72
2022/06/04 04:27:55;;;;;;;2.58;1.27;;;18.30;57.90;;;;;;5094487;28;20062;-72
2022/06/04 04:30:24;;;;;;;1.43;0.63;;;18.40;58.00;;;;;;5093046;28;20048;-72
2022/06/04 04:32:51;;;;;;;2.03;1.38;;;18.40;58.00;;;;;;5094368;28;20493;-72
2022/06/04 04:35:20;;;;;;;1.17;0.70;;;18.40;58.00;;;;;;5093975;28;20040;-72
2022/06/04 04:37:46;;;;;;;1.75;1.00;;;18.40;57.90;;;;;;5093081;28;20098;-65
2022/06/04 04:40:15;;;;;;;1.70;0.80;;;18.40;57.90;;;;;;5092150;28;20335;-72
2022/06/04 04:42:41;;;;;;;2.33;0.90;;;18.40;57.90;;;;;;5093796;28;20399;-72
2022/06/04 04:45:08;;;;;;;1.73;0.70;;;18.40;57.90;;;;;;5092827;28;20101;-72
2022/06/04 04:47:35;;;;;;;2.20;0.98;;;18.40;57.90;;;;;;5092876;28;20391;-72
2022/06/04 04:50:03;;;;;;;1.80;1.42;;;18.40;57.90;;;;;;5092796;28;20422;-72
2022/06/04 04:52:28;;;;;;;2.15;0.93;;;18.40;57.90;;;;;;5092623;28;20044;-72
2022/06/04 04:54:54;;;;;;;1.98;1.00;;;18.40;57.90;;;;;;5092294;28;20468;-72
2022/06/04 04:57:20;;;;;;;1.55;0.80;;;18.40;57.90;;;;;;5093697;28;20488;-72
2022/06/04 04:59:45;;;;;;;2.00;1.13;;;18.40;57.90;;;;;;5092345;28;20037;-72
2022/06/04 05:02:11;;;;;;;1.50;0.93;;;18.40;57.90;;;;;;5091469;28;20472;-72
2022/06/04 05:04:37;;;;;;;1.60;0.60;;;18.40;57.80;;;;;;5093378;28;20040;-71
2022/06/04 05:07:03;;;;;;;2.30;0.88;;;18.50;57.90;;;;;;5093365;28;20032;-72
2022/06/04 05:09:28;;;;;;;4.57;1.52;;;18.50;57.80;;;;;;5092128;28;20071;-72
2022/06/04 05:11:54;;;;;;;2.53;0.88;;;18.50;57.80;;;;;;5092234;28;20051;-72
2022/06/04 05:14:23;;;;;;;2.03;1.05;;;18.50;57.80;;;;;;5092460;28;20407;-72
2022/06/04 05:16:51;;;;;;;1.75;1.02;;;18.40;58.00;;;;;;5093391;28;20044;-72
2022/06/04 05:19:17;;;;;;;5.07;1.25;;;18.50;57.80;;;;;;5093169;28;20433;-72
2022/06/04 05:21:47;;;;;;;3.15;1.20;;;18.50;57.80;;;;;;5091799;28;20036;-71
2022/06/04 05:27:03;;;;;;;1.70;1.10;;;18.50;57.70;;;;;;5130291;27;20387;-72
2022/06/04 05:29:29;;;;;;;;;;;18.50;57.70;;;;;;5112346;28;20051;-71
2022/06/04 05:31:56;;;;;;;2.75;1.02;;;18.50;57.70;;;;;;5129086;28;19938;-72
2022/06/04 05:34:22;;;;;;;1.98;0.95;;;18.50;57.60;;;;;;5146613;27;20062;-72
2022/06/04 05:36:48;;;;;;;1.95;1.45;;;18.50;57.60;;;;;;5129566;28;20039;-72
2022/06/04 05:39:15;;;;;;;2.28;1.25;;;18.50;57.60;;;;;;5128924;27;20047;-72
2022/06/04 05:41:41;;;;;;;2.17;0.70;;;18.50;57.60;;;;;;5129093;28;20043;-72
2022/06/04 05:44:07;;;;;;;1.77;0.93;;;18.50;57.60;;;;;;5130005;27;20399;-73
2022/06/04 05:46:34;;;;;;;2.92;1.05;;;18.50;57.60;;;;;;5129811;27;20371;-72
2022/06/04 05:48:59;;;;;;;2.33;0.77;;;18.50;57.60;;;;;;5128615;27;20044;-72
2022/06/04 05:51:28;;;;;;;1.13;0.80;;;18.50;57.60;;;;;;5128699;28;20040;-72
2022/06/04 05:53:54;;;;;;;2.05;1.13;;;18.50;57.60;;;;;;5128757;28;20046;-72
2022/06/04 05:56:26;;;;;;;2.08;1.10;;;18.60;57.60;;;;;;5128452;27;20114;-72
2022/06/04 05:58:55;;;;;;;1.88;0.88;;;18.50;57.50;;;;;;5128478;27;20546;-72
2022/06/04 06:01:22;;;;;;;1.60;1.02;;;18.50;57.50;;;;;;5129693;27;20547;-72
2022/06/04 06:03:48;;;;;;;1.70;0.70;;;18.60;57.50;;;;;;5129586;27;20084;-72
2022/06/04 06:06:18;;;;;;;1.30;1.00;;;18.60;57.40;;;;;;5128190;28;20551;-72
2022/06/04 06:08:44;;;;;;;2.15;0.82;;;18.60;57.40;;;;;;5129700;27;20097;-72
2022/06/04 06:11:13;;;;;;;1.85;0.93;;;18.60;57.40;;;;;;5129663;27;20160;-72
2022/06/04 06:13:40;;;;;;;1.75;0.85;;;18.50;57.30;;;;;;5128118;27;20089;-72
2022/06/04 06:16:11;;;;;;;1.60;0.63;;;18.60;57.40;;;;;;5128435;28;20040;-72
2022/06/04 06:18:37;;;;;;;1.50;0.88;;;18.60;57.30;;;;;;5128262;28;20049;-72
2022/06/04 06:21:08;;;;;;;1.60;0.90;;;18.60;57.30;;;;;;5127944;27;20406;-72
2022/06/04 06:23:35;;;;;;;1.58;0.73;;;18.60;57.30;;;;;;5128251;27;20043;-72
2022/06/04 06:26:06;;;;;;;1.67;1.00;;;18.60;57.20;;;;;;5110581;28;20055;-72
2022/06/04 06:28:36;;;;;;;1.77;0.93;;;18.60;57.30;;;;;;5129021;27;20478;-72
2022/06/04 06:31:04;;;;;;;1.33;0.90;;;18.60;57.20;;;;;;5128103;27;20083;-72
2022/06/04 06:33:33;;;;;;;2.88;1.20;;;18.60;57.20;;;;;;5127690;28;20428;-72
2022/06/04 06:36:02;;;;;;;1.27;0.98;;;18.60;57.20;;;;;;5127870;27;20558;-72
2022/06/04 06:38:28;;;;;;;1.63;0.90;;;18.60;57.20;;;;;;5113686;28;20046;-72
2022/06/04 06:40:55;;;;;;;1.55;0.77;;;18.60;57.20;;;;;;5113905;28;20043;-72
2022/06/04 06:43:22;;;;;;;1.15;0.55;;;18.60;57.20;;;;;;5115060;28;20043;-72
2022/06/04 06:45:48;;;;;;;2.50;0.55;;;18.60;57.10;;;;;;5113831;28;20089;-72
2022/06/04 06:48:14;;;;;;;1.13;0.70;;;18.60;57.10;;;;;;5115210;28;20047;-72
2022/06/04 06:50:40;;;;;;;1.85;0.70;;;18.60;57.10;;;;;;5113723;28;20032;-72
2022/06/04 06:53:06;;;;;;;2.83;1.17;;;18.70;57.10;;;;;;5113733;28;20483;-72
2022/06/04 06:55:34;;;;;;;1.63;0.82;;;18.70;57.10;;;;;;5113764;28;20047;-72
2022/06/04 06:58:00;;;;;;;1.85;0.93;;;18.70;57.10;;;;;;5114872;28;20487;-71
2022/06/04 07:00:25;;;;;;;3.28;1.20;;;18.70;57.10;;;;;;5113486;28;20035;-72
2022/06/04 07:02:51;;;;;;;2.25;0.90;;;18.70;57.70;;;;;;5113483;28;20055;-72
2022/06/04 07:05:17;;;;;;;0.90;0.70;;;18.70;57.00;;;;;;5113333;28;20077;-72
2022/06/04 07:07:42;;;;;;;1.30;0.70;;;18.70;56.90;;;;;;5114827;28;20042;-72
2022/06/04 07:10:10;;;;;;;1.70;1.05;;;18.70;56.90;;;;;;5114718;28;20403;-72
2022/06/04 07:12:35;;;;;;;1.83;0.90;;;18.70;56.90;;;;;;5114755;28;20058;-72
2022/06/04 07:15:02;;;;;;;0.77;0.60;;;18.70;56.80;;;;;;5113226;28;20479;-72
2022/06/04 07:17:31;;;;;;;1.60;1.25;;;18.80;56.90;;;;;;5113307;28;20505;-72
2022/06/04 07:19:56;;;;;;;1.52;1.00;;;18.70;56.70;;;;;;5114466;28;20044;-72
2022/06/04 07:22:22;;;;;;;1.40;0.82;;;18.70;56.70;;;;;;5113329;28;20127;-71
2022/06/04 07:24:47;;;;;;;1.27;0.70;;;18.70;56.70;;;;;;5114130;28;20078;-71
2022/06/04 07:27:13;;;;;;;0.90;0.60;;;18.80;56.70;;;;;;5113199;28;20058;-72
2022/06/04 07:29:39;;;;;;;1.58;0.77;;;18.80;56.70;;;;;;5114356;28;20490;-72
2022/06/04 07:32:05;;;;;;;3.17;1.73;;;18.80;56.60;;;;;;5112976;28;20040;-72
2022/06/04 07:34:31;;;;;;;2.20;0.75;;;18.80;56.60;;;;;;5112900;28;20057;-74
2022/06/04 07:36:57;;;;;;;1.67;0.73;;;18.80;56.60;;;;;;5112794;28;20047;-71
2022/06/04 07:39:23;;;;;;;1.45;0.88;;;18.80;56.50;;;;;;5112769;28;20043;-72
2022/06/04 07:41:52;;;;;;;3.42;1.05;;;18.80;56.50;;;;;;5113001;28;20043;-72
2022/06/04 07:44:19;;;;;;;2.03;0.85;;;18.80;56.50;;;;;;5112775;28;20052;-72
2022/06/04 07:46:49;;;;;;;1.63;1.00;;;18.90;56.40;;;;;;5112528;28;20040;-72
2022/06/04 07:49:15;;;;;;;1.40;0.80;;;18.80;56.30;;;;;;5111881;28;20039;-72
2022/06/04 07:51:45;;;;;;;2.70;0.82;;;18.90;56.30;;;;;;5112832;28;20418;-72
2022/06/04 07:54:12;;;;;;;1.92;0.60;;;19.00;56.30;;;;;;5112875;28;20122;-72
2022/06/04 07:56:38;;;;;;;1.58;0.75;;;19.00;56.20;;;;;;5113854;28;20039;-72
2022/06/04 07:59:06;;;;;;;1.20;0.70;;;19.00;56.10;;;;;;5112482;28;20131;-71
2022/06/04 08:01:31;;;;;;;1.13;0.65;;;19.00;55.90;;;;;;5112609;28;20051;-72
2022/06/04 08:03:57;;;;;;;2.28;1.00;;;19.10;55.80;;;;;;5112235;28;20047;-71
2022/06/04 08:06:24;;;;;;;1.33;0.70;;;19.10;55.70;;;;;;5112275;28;20080;-72
2022/06/04 08:08:51;;;;;;;1.23;0.50;;;19.20;55.50;;;;;;5113673;28;20040;-72
2022/06/04 08:11:35;;;;;;;1.10;0.70;;;19.20;55.30;;;;;;5113614;28;20035;-71
2022/06/04 08:14:13;;;;;;;1.38;0.77;;;19.30;55.20;;;;;;5113770;28;20100;-71
2022/06/04 08:16:43;;;;;;;1.00;0.77;;;19.30;55.10;;;;;;5112220;28;20051;-72
2022/06/04 08:19:09;;;;;;;1.10;0.70;;;19.40;54.90;;;;;;5112048;28;20055;-71
2022/06/04 08:21:37;;;;;;;1.65;1.08;;;19.40;54.80;;;;;;5112233;28;20044;-72
2022/06/04 08:24:03;;;;;;;1.63;0.60;;;19.50;55.50;;;;;;5112120;28;20114;-72
2022/06/04 08:26:30;;;;;;;0.95;0.73;;;19.50;54.60;;;;;;5112906;28;20475;-72
2022/06/04 08:28:56;;;;;;;1.33;1.15;;;19.60;54.50;;;;;;5112027;28;20039;-71
2022/06/04 08:31:22;;;;;;;1.52;0.80;;;19.60;54.40;;;;;;5113018;28;20115;-72
2022/06/04 08:33:48;;;;;;;1.55;0.95;;;19.60;54.20;;;;;;5113057;28;20044;-72
2022/06/04 08:36:16;;;;;;;1.40;0.70;;;19.70;54.10;;;;;;5111943;28;20128;-72
2022/06/04 08:38:42;;;;;;;1.05;0.47;;;19.70;53.90;;;;;;5112930;28;20425;-72
2022/06/04 08:41:51;;;;;;;1.17;0.80;;;19.90;53.70;;;;;;5113023;28;20416;-72
2022/06/04 08:44:25;;;;;;;1.30;0.60;;;19.90;53.50;;;;;;5111235;28;20039;-72
2022/06/04 08:49:39;;;;;;;1.55;1.00;;;20.00;53.30;;;;;;5130322;27;20432;-71
2022/06/04 08:52:13;;;;;;;1.77;0.52;;;20.10;52.90;;;;;;5128928;27;20040;-72
2022/06/04 08:57:33;;;;;;;0.90;0.63;;;20.30;52.50;;;;;;5128701;27;20051;-72
2022/06/04 09:08:14;;;;;;;1.45;0.50;;;20.60;51.80;;;;;;5130364;27;20353;-72
2022/06/04 09:10:46;;;;;;;1.55;0.70;;;21.30;50.10;;;;;;5128903;28;20043;-66
2022/06/04 09:16:34;;;;;;;1.13;0.60;;;21.40;49.90;;;;;;5130145;27;20353;-72
2022/06/04 09:19:02;;;;;;;1.48;0.82;;;21.30;50.00;;;;;;5129287;27;20074;-72
2022/06/04 09:21:37;;;;;;;1.10;0.60;;;21.40;49.80;;;;;;5129715;27;20567;-72
2022/06/04 09:24:04;;;;;;;0.98;0.65;;;21.40;50.40;;;;;;5129436;28;20039;-72
2022/06/04 09:26:42;;;;;;;1.52;0.88;;;21.50;49.50;;;;;;5128948;28;20067;-72
2022/06/04 09:34:50;;;;;;;1.15;0.80;;;21.60;49.40;;;;;;5153046;27;1159356;-71
2022/06/04 09:37:18;;;;;;;1.30;0.90;;;21.70;49.00;;;;;;5153442;27;20046;-72
2022/06/04 09:40:01;;;;;;;1.42;0.50;;;21.70;48.90;;;;;;5153077;27;20502;-65
2022/06/04 09:42:31;;;;;;;0.90;0.70;;;21.80;48.90;;;;;;5153011;27;20508;-71
2022/06/04 09:58:33;;;;;;;2.33;0.85;;;21.80;48.80;;;;;;5130521;27;20383;-71
2022/06/04 10:01:08;;;;;;;1.10;0.80;;;21.70;49.00;;;;;;5128888;28;20043;-72
2022/06/04 10:03:37;;;;;;;0.88;0.80;;;21.70;49.00;;;;;;5129141;27;20043;-71
2022/06/04 10:06:13;;;;;;;1.40;0.73;;;21.60;49.10;;;;;;5128849;28;20040;-72
2022/06/04 10:11:34;;;;;;;1.30;0.73;;;21.60;49.30;;;;;;5128460;28;20576;-72
2022/06/04 10:14:00;;;;;;;1.65;0.60;;;21.60;49.20;;;;;;5129249;28;20502;-72
2022/06/04 10:22:10;;;;;;;1.98;0.93;;;21.60;49.20;;;;;;5150988;27;20573;-71
2022/06/04 10:24:58;;;;;;;0.85;0.70;;;21.50;49.40;;;;;;5128965;28;20047;-71
2022/06/04 10:27:54;;;;;;;0.98;0.73;;;21.50;49.50;;;;;;5129182;28;20051;-72
2022/06/04 10:33:15;;;;;;;0.88;0.77;;;21.50;49.50;;;;;;5130168;27;20112;-70
2022/06/04 10:41:15;;;;;;;1.60;0.85;;;21.40;49.70;;;;;;5089408;27;20917;-72
2022/06/04 10:51:54;;;;;;;2.25;0.65;;;21.40;50.00;;;;;;5130153;27;20759;-72
2022/06/04 11:00:20;;;;;;;1.75;0.70;;;21.20;50.30;;;;;;5150938;27;20467;-72
2022/06/04 11:03:00;;;;;;;1.20;0.80;;;21.20;50.60;;;;;;5128899;28;20122;-72
2022/06/04 11:05:32;;;;;;;0.90;0.55;;;21.20;50.70;;;;;;5129234;28;20088;-72
2022/06/04 11:10:46;;;;;;;1.30;1.00;;;21.20;50.70;;;;;;5152708;27;1166562;-72
2022/06/04 11:13:21;;;;;;;1.10;0.88;;;21.10;50.80;;;;;;5153371;27;20363;-72
2022/06/04 11:18:50;;;;;;;2.63;0.90;;;21.10;50.90;;;;;;5089358;28;20410;-72
2022/06/04 11:21:40;;;;;;;1.75;0.70;;;21.10;51.10;;;;;;5088490;28;20445;-72
2022/06/04 11:29:29;;;;;;;1.63;0.85;;;21.10;51.20;;;;;;5130244;27;20391;-72
2022/06/04 11:32:22;;;;;;;1.80;1.10;;;21.10;51.40;;;;;;5130285;27;20064;-73
2022/06/04 11:38:08;;;;;;;1.10;0.57;;;21.00;51.30;;;;;;5130269;27;20366;-72
2022/06/04 11:49:33;;;;;;;1.45;0.85;;;21.10;51.50;;;;;;5133240;27;1169160;-72
2022/06/04 12:00:37;;;;;;;1.40;0.85;;;21.20;51.60;;;;;;5109534;27;20471;-72
2022/06/04 12:06:11;;;;;;;1.08;0.98;;;21.10;51.40;;;;;;5130213;27;20699;-72
2022/06/04 12:08:44;;;;;;;1.98;0.95;;;21.20;51.50;;;;;;5128774;28;20495;-72
2022/06/04 12:14:19;;;;;;;1.58;1.10;;;21.20;51.50;;;;;;5152531;27;1167434;-72
2022/06/04 12:24:16;;;;;;;1.40;0.88;;;21.20;51.50;;;;;;5130310;27;20354;-66
2022/06/04 12:25:17;;;;;;;1.80;1.00;;;21.20;51.50;;;;;;5128671;28;20126;-72
2022/06/04 12:28:01;;;;;;;2.27;1.00;;;21.20;51.50;;;;;;5129192;27;20035;-72
2022/06/04 12:30:46;;;;;;;1.85;0.80;;;21.20;51.50;;;;;;5128698;27;20096;-72
2022/06/04 12:36:12;;;;;;;1.30;0.88;;;21.20;51.90;;;;;;5130202;27;20365;-72
2022/06/04 12:38:41;;;;;;;1.00;0.60;;;21.20;51.70;;;;;;5129193;28;20051;-71
2022/06/04 12:43:55;;;;;;;1.87;1.03;;;21.20;51.70;;;;;;5153089;27;1161765;-72
2022/06/04 12:51:56;;;;;;;1.73;0.90;;;21.20;51.80;;;;;;5130231;27;20383;-72
2022/06/04 12:57:25;;;;;;;1.83;0.90;;;21.20;51.80;;;;;;5110972;27;1172951;-72
2022/06/04 13:00:04;;;;;;;1.70;0.73;;;21.20;51.80;;;;;;5112026;28;20043;-73
2022/06/04 13:02:34;;;;;;;1.05;0.70;;;21.20;51.90;;;;;;5112075;28;20043;-72
2022/06/04 13:05:18;;;;;;;;;;;21.20;51.90;;;;;;5130694;28;20058;-72
2022/06/04 13:07:51;;;;;;;1.05;0.60;;;21.20;51.90;;;;;;5112034;28;19915;-72
2022/06/04 13:10:38;;;;;;;1.73;0.80;;;21.20;51.90;;;;;;5111746;28;20494;-71
2022/06/04 13:13:41;;;;;;;1.23;0.90;;;21.20;51.90;;;;;;5111650;28;20039;-72
2022/06/04 13:16:20;;;;;;;2.35;1.23;;;21.20;51.90;;;;;;5111281;28;20042;-72
2022/06/04 13:21:51;;;;;;;1.05;0.73;;;21.20;51.90;;;;;;5109655;27;20359;-72
2022/06/04 13:24:22;;;;;;;1.75;0.98;;;21.20;51.90;;;;;;5108791;28;20050;-72
2022/06/04 13:27:11;;;;;;;0.93;0.80;;;21.20;51.80;;;;;;5091420;28;20050;-71
2022/06/04 13:29:40;;;;;;;1.08;0.82;;;21.30;51.90;;;;;;5091400;28;20043;-72
2022/06/04 13:34:49;;;;;;;1.83;1.13;;;21.30;51.90;;;;;;5130336;27;20429;-72
2022/06/04 13:37:22;;;;;;;1.35;0.82;;;21.30;51.90;;;;;;5129232;27;20043;-72
2022/06/04 13:39:51;;;;;;;1.45;0.80;;;21.30;51.90;;;;;;5129115;27;20043;-71
2022/06/04 13:42:28;;;;;;;1.17;0.82;;;21.30;51.90;;;;;;5129187;28;20100;-72
2022/06/04 13:44:57;;;;;;;1.55;0.73;;;21.30;51.90;;;;;;5118052;28;20115;-72
2022/06/04 13:47:29;;;;;;;1.40;0.85;;;21.30;51.90;;;;;;5125569;27;20042;-72
2022/06/04 13:52:54;;;;;;;1.20;0.93;;;21.30;51.90;;;;;;5109773;27;20416;-72
2022/06/04 13:58:10;;;;;;;1.30;0.70;;;21.30;51.80;;;;;;5130309;27;20415;-71
2022/06/04 14:00:37;;;;;;;2.25;0.90;;;21.40;51.80;;;;;;5129068;28;20051;-72
2022/06/04 14:03:12;;;;;;;0.90;0.70;;;21.40;51.80;;;;;;5129198;28;20043;-72
2022/06/04 14:05:44;;;;;;;1.10;0.82;;;21.40;51.90;;;;;;5129115;28;20078;-72
2022/06/04 14:08:11;;;;;;;0.80;0.68;;;21.40;51.90;;;;;;5128913;28;20043;-71
2022/06/04 14:10:37;;;;;;;0.77;0.60;;;21.40;51.80;;;;;;5128715;28;20043;-73
2022/06/04 14:13:30;;;;;;;2.38;1.17;;;21.40;51.80;;;;;;5128876;28;20145;-71
2022/06/04 14:35:28;;;;;;;1.40;0.80;;;21.40;52.00;;;;;;5109871;27;20358;-72
2022/06/04 14:38:00;;;;;;;2.15;0.88;;;21.30;52.20;;;;;;5108754;28;20046;-73
2022/06/04 14:40:58;;;;;;;1.17;0.63;;;21.30;52.30;;;;;;5109660;28;20449;-71
2022/06/04 14:46:35;;;;;;;1.58;0.80;;;21.30;52.30;;;;;;5089257;28;20393;-72
2022/06/04 14:54:36;;;;;;;1.17;0.73;;;21.30;52.30;;;;;;5109868;27;20304;-73
2022/06/04 15:13:37;;;;;;;1.35;0.73;;;21.40;52.30;;;;;;5130358;27;20764;-72
2022/06/04 15:16:27;;;;;;;1.25;0.80;;;21.40;52.20;;;;;;5128965;28;20462;-72
2022/06/04 15:19:05;;;;;;;1.45;0.80;;;21.40;52.20;;;;;;5130129;28;20118;-71
2022/06/04 15:22:10;;;;;;;1.25;0.55;;;21.40;52.30;;;;;;5129097;28;20042;-72
2022/06/04 15:25:02;;;;;;;1.20;0.77;;;21.50;52.40;;;;;;5163168;27;20045;-72
2022/06/04 15:33:54;;;;;;;2.05;0.70;;;21.50;52.30;;;;;;5129079;27;20054;-71
2022/06/04 15:45:16;;;;;;;1.15;0.90;;;21.50;52.50;;;;;;5150865;27;20462;-71
2022/06/04 15:56:28;;;;;;;1.20;0.90;;;21.50;52.50;;;;;;5128404;28;20039;-72
2022/06/04 15:59:06;;;;;;;2.60;0.90;;;21.50;52.50;;;;;;5130167;27;20042;-71
2022/06/04 16:07:16;;;;;;;2.15;1.23;;;21.50;52.50;;;;;;5130147;27;20383;-71
2022/06/04 16:09:42;;;;;;;1.10;0.80;;;21.50;52.60;;;;;;5128787;27;20055;-71
2022/06/04 16:12:27;;;;;;;1.77;0.80;;;21.50;52.70;;;;;;5146421;27;20040;-72
2022/06/04 16:17:52;;;;;;;1.05;0.60;;;21.50;52.70;;;;;;5089241;27;20409;-71
2022/06/04 16:25:46;;;;;;;1.42;0.95;;;21.50;52.80;;;;;;5109712;27;20765;-72
2022/06/04 16:28:17;;;;;;;0.93;0.65;;;21.50;52.80;;;;;;5142734;27;20048;-72
2022/06/04 16:30:45;;;;;;;2.30;1.15;;;21.50;52.90;;;;;;5108377;28;20039;-72
2022/06/04 16:33:26;;;;;;;1.55;0.63;;;21.50;52.90;;;;;;5108701;28;20054;-71
2022/06/04 16:49:48;;;;;;;1.13;0.70;;;21.40;53.30;;;;;;5150948;27;20297;-72
2022/06/04 16:52:20;;;;;;;1.33;1.13;;;21.40;53.40;;;;;;5128968;28;20057;-74
2022/06/04 16:54:50;;;;;;;1.15;0.95;;;21.40;53.40;;;;;;5128856;28;20085;-72
2022/06/04 16:57:16;;;;;;;2.90;1.35;;;21.40;53.50;;;;;;5128860;28;20083;-72
2022/06/04 16:59:44;;;;;;;1.30;1.15;;;21.30;53.50;;;;;;5129058;28;20075;-71
2022/06/04 17:05:31;;;;;;;2.57;1.20;;;21.30;53.60;;;;;;5154964;27;1160542;-72
2022/06/04 17:16:57;;;;;;;2.72;1.05;;;21.30;53.90;;;;;;5130138;27;20415;-71
2022/06/04 17:33:21;;;;;;;2.75;0.82;;;21.30;54.00;;;;;;5089486;28;20133;-72
2022/06/04 17:36:01;;;;;;;2.10;1.00;;;21.30;54.00;;;;;;5088103;28;20087;-71
2022/06/04 17:41:15;;;;;;;2.50;0.98;;;21.30;54.10;;;;;;5159037;27;1213647;-65
2022/06/04 17:43:41;;;;;;;1.35;0.85;;;21.30;54.10;;;;;;5153298;27;20121;-72
2022/06/04 17:46:07;;;;;;;1.65;0.95;;;21.30;54.10;;;;;;5153111;27;20511;-72
2022/06/04 17:48:32;;;;;;;1.40;1.10;;;21.30;54.10;;;;;;5153348;27;20050;-72
2022/06/04 17:50:58;;;;;;;1.25;0.80;;;21.30;54.10;;;;;;5153191;27;20122;-71
2022/06/04 17:53:25;;;;;;;1.30;1.08;;;21.30;54.10;;;;;;5152827;27;20039;-73
2022/06/04 17:55:51;;;;;;;1.63;1.15;;;21.30;54.10;;;;;;5153481;27;20491;-71
2022/06/04 17:58:17;;;;;;;1.20;0.85;;;21.30;54.10;;;;;;5172302;27;20035;-72
2022/06/04 18:00:43;;;;;;;1.50;1.00;;;21.30;54.10;;;;;;5152965;27;20117;-71
2022/06/04 18:03:15;;;;;;;1.45;0.70;;;21.30;54.10;;;;;;5152999;27;20050;-72
2022/06/04 18:05:42;;;;;;;1.27;0.93;;;21.30;54.10;;;;;;5152737;27;20075;-72
2022/06/04 18:08:08;;;;;;;1.67;1.20;;;21.30;54.00;;;;;;5152663;27;20053;-72
2022/06/04 18:10:34;;;;;;;1.58;0.98;;;21.30;54.00;;;;;;5152569;27;20117;-72
2022/06/04 18:13:01;;;;;;;1.17;1.00;;;21.30;54.00;;;;;;5152439;27;20046;-71
2022/06/04 18:15:27;;;;;;;1.40;1.00;;;21.30;54.00;;;;;;5152542;27;20481;-72
2022/06/04 18:17:54;;;;;;;1.52;1.00;;;21.30;54.00;;;;;;5152428;27;20042;-71
2022/06/04 18:20:20;;;;;;;1.40;1.02;;;21.30;54.00;;;;;;5152414;27;20095;-71